Sea Cloud — 9HOM2 — position and weather

sailwx.info

Track history (hours):
 
Tides and Currents Weather Stations Pressure Air Temp Water Temp Dewpoint Dewpoint Depression Visibility Wind Speed Wind Dir Waves Ship Positions

Sea Cloud

Ship's website: http://www.seacloud.com/en/the-ships/sea-cloud.html

Last reported at 2018-May-21 23:56 UTC. Time now 2018-May-23 10:51 UTC.
Position N 38°13' E 013°49'.

Length 110 m; draft 5.1 m.

Type: Ship. MMSI: 256084000.

Date/timePositionNaut miles runAvg speedWind from/ knotsBaromVisibWave heightAir tempDewpointWater temp
2018-May-21 23:56N 38°13' E 013°49'3 7.1
2018-May-21 23:30N 38°11' E 013°46'4 7.3
2018-May-21 23:00N 38°08' E 013°44'4 7.5
2018-May-21 22:29N 38°04' E 013°44'4 7.7
2018-May-21 21:57N 37°60' E 013°44'1 0.2
2018-May-21 17:05N 37°59' E 013°42'0 0.0
2018-May-21 17:00N 37°59' E 013°42'0 0.0
2018-May-21 16:24N 37°59' E 013°42'0 0.0
2018-May-21 14:12N 37°59' E 013°42'0 0.0
2018-May-21 13:42N 37°59' E 013°42'0 0.0
2018-May-21 13:30N 37°59' E 013°42'0 0.0
2018-May-21 13:00N 37°59' E 013°42'0 0.0
2018-May-21 12:29N 37°59' E 013°42'2 3.2
2018-May-21 12:00N 38°00' E 013°44'3 6.9
2018-May-21 11:30N 38°04' E 013°44'4 7.6
2018-May-21 11:00N 38°08' E 013°44'4 7.6
2018-May-21 10:30N 38°12' E 013°44'4 7.3
2018-May-21 10:00N 38°15' E 013°45'0 0.4
2018-May-21 09:29N 38°15' E 013°45'0 0.1
2018-May-21 09:00N 38°15' E 013°45'0 0.6
2018-May-21 08:27N 38°15' E 013°45'0 0.9
2018-May-21 08:00N 38°16' E 013°46'0 0.7
2018-May-21 07:26N 38°16' E 013°46'0 0.5
2018-May-21 06:57N 38°16' E 013°46'0 0.5
2018-May-21 06:26N 38°17' E 013°45'1 2.4
2018-May-21 06:00N 38°17' E 013°45'3 5.8
2018-May-21 05:28N 38°20' E 013°43'3 6.1
2018-May-21 04:55N 38°19' E 013°39'3 6.6
2018-May-21 04:26N 38°18' E 013°35'2 5.4
2018-May-21 04:00N 38°19' E 013°33'3 5.6
2018-May-21 03:30N 38°20' E 013°29'3 5.9
2018-May-21 02:59N 38°20' E 013°25'3 5.9
2018-May-21 02:31N 38°20' E 013°22'4 7.2
2018-May-21 02:00N 38°20' E 013°17'4 8.0
2018-May-21 01:29N 38°20' E 013°12'4 7.8
2018-May-21 01:00N 38°20' E 013°07'4 7.5
2018-May-21 00:30N 38°20' E 013°02'4 7.1
2018-May-21 00:00N 38°20' E 012°58'10 6.8
2018-May-20 22:28N 38°20' E 012°44'  
2018-May-17 14:29N 36°31' E 013°29'1 1.1
2018-May-17 13:26N 36°30' E 013°30'0 1.0
2018-May-17 12:58N 36°30' E 013°31'0 0.9
2018-May-17 12:30N 36°29' E 013°31'0 1.0
2018-May-17 12:00N 36°29' E 013°32'1 1.1
2018-May-17 11:30N 36°29' E 013°32'1 1.2
2018-May-17 11:00N 36°28' E 013°33'1 2.6
2018-May-17 10:31N 36°27' E 013°34'2 3.5
2018-May-17 10:00N 36°26' E 013°35'2 3.8
2018-May-17 09:28N 36°24' E 013°36'3 4.7
2018-May-17 08:56N 36°22' E 013°39'3 5.8
2018-May-17 08:29N 36°21' E 013°41'4 5.1
2018-May-17 07:46N 36°19' E 013°45'1 3.1
2018-May-17 07:28N 36°18' E 013°45'3 1.5
2018-May-17 05:38N 36°16' E 013°47'0 0.9
2018-May-17 05:30N 36°16' E 013°47'32 1.7
2018-May-16 10:39N 36°01' E 014°23'10 0.3
2018-May-15 04:55N 35°54' E 014°31'2 5.2
2018-May-15 04:30N 35°55' E 014°33'4 7.5
2018-May-15 04:01N 35°58' E 014°36'4 7.2
2018-May-15 03:29N 36°01' E 014°39'11 7.1
2018-May-15 02:00N 36°09' E 014°47'16 5.3
2018-May-14 23:01N 36°21' E 015°01'7 5.3
2018-May-14 21:39N 36°27' E 015°05'32 6.0
2018-May-14 16:15N 36°56' E 015°23'7 3.0
2018-May-14 14:05N 36°60' E 015°30'0 2.7
2018-May-14 14:00N 36°60' E 015°30'51 1.8
2018-May-13 08:58N 37°51' E 015°27'3 5.5
2018-May-13 08:25N 37°54' E 015°29'6 6.3
2018-May-13 07:25N 37°60' E 015°31'3 7.0
2018-May-13 07:00N 38°03' E 015°32'4 7.2
2018-May-13 06:30N 38°06' E 015°34'4 7.2
2018-May-13 06:00N 38°10' E 015°35'5 9.0
2018-May-13 05:28N 38°14' E 015°36'4 8.3
2018-May-13 04:57N 38°17' E 015°40'4 7.5
2018-May-13 04:29N 38°19' E 015°37'3 7.1
2018-May-13 04:00N 38°21' E 015°33'3 6.3
2018-May-13 03:30N 38°22' E 015°30'4 7.7
2018-May-13 03:00N 38°21' E 015°25'4 7.1
2018-May-13 02:30N 38°21' E 015°21'3 5.8
2018-May-13 02:00N 38°21' E 015°17'3 6.6
2018-May-13 01:30N 38°20' E 015°13'4 8.1
2018-May-13 01:00N 38°19' E 015°08'4 8.2
2018-May-13 00:28N 38°19' E 015°02'4 8.4
2018-May-13 00:00N 38°19' E 014°57'59 9.4
2018-May-12 17:43N 38°11' E 013°43'2 9.9
2018-May-12 17:29N 38°10' E 013°40'3 7.1
2018-May-12 17:00N 38°10' E 013°36'3 6.7
2018-May-12 16:30N 38°10' E 013°31'3 6.9
2018-May-12 16:00N 38°09' E 013°27'4 7.3
2018-May-12 15:30N 38°07' E 013°23'1 2.4
2018-May-12 15:01N 38°08' E 013°22'0 0.0
2018-May-12 14:30N 38°08' E 013°22'0 0.0
2018-May-12 14:00N 38°08' E 013°22'0 0.0
2018-May-12 13:31N 38°08' E 013°22'0 0.0
2018-May-12 12:56N 38°08' E 013°22'0 0.0
2018-May-12 12:27N 38°08' E 013°22'0 0.0
2018-May-12 11:57N 38°08' E 013°22'0 0.0
2018-May-12 11:31N 38°08' E 013°22'0 0.0
2018-May-12 10:55N 38°08' E 013°22'0 0.0
2018-May-12 10:27N 38°08' E 013°22'0 0.0
2018-May-12 09:56N 38°08' E 013°22'0 0.0
2018-May-12 09:30N 38°08' E 013°22'0 0.0
2018-May-12 09:00N 38°08' E 013°22'0 0.0
2018-May-12 08:26N 38°08' E 013°22'0 0.0
2018-May-12 07:58N 38°08' E 013°22'0 0.0
2018-May-12 07:31N 38°08' E 013°22'0 0.0
2018-May-12 07:00N 38°08' E 013°22'0 0.0
2018-May-12 06:28N 38°08' E 013°22'0 0.0
2018-May-12 05:54N 38°08' E 013°22'0 0.0
2018-May-12 05:30N 38°08' E 013°22'0 0.8
2018-May-12 05:00N 38°08' E 013°22'3 5.1
2018-May-12 04:31N 38°09' E 013°25'4 7.1
2018-May-12 04:00N 38°13' E 013°24'3 5.8
2018-May-12 03:31N 38°16' E 013°23'3 5.2
2018-May-12 03:00N 38°18' E 013°22'3 5.3
2018-May-12 02:30N 38°20' E 013°20'3 5.4
2018-May-12 02:00N 38°22' E 013°18'3 5.3
2018-May-12 01:30N 38°24' E 013°15'3 5.3
2018-May-12 00:59N 38°26' E 013°13'3 5.3
2018-May-12 00:30N 38°28' E 013°11'  
Track history (hours):
 
Tides and Currents Weather Stations Pressure Air Temp Water Temp Dewpoint Dewpoint Depression Visibility Wind Speed Wind Dir Waves Ship Positions

Sea Cloud

Ship's website: http://www.seacloud.com/en/the-ships/sea-cloud.html

Last reported at 2018-May-21 23:56 UTC. Time now 2018-May-23 10:51 UTC.
Position N 38°13' E 013°49'.

Length 110 m; draft 5.1 m.

Type: Ship. MMSI: 256084000.

Date/timePositionNaut miles runAvg speedWind from/ knotsBaromVisibWave heightAir tempDewpointWater temp
2018-May-21 23:56N 38°13' E 013°49'3 7.1
2018-May-21 23:30N 38°11' E 013°46'4 7.3
2018-May-21 23:00N 38°08' E 013°44'4 7.5
2018-May-21 22:29N 38°04' E 013°44'4 7.7
2018-May-21 21:57N 37°60' E 013°44'1 0.2
2018-May-21 17:05N 37°59' E 013°42'0 0.0
2018-May-21 17:00N 37°59' E 013°42'0 0.0
2018-May-21 16:24N 37°59' E 013°42'0 0.0
2018-May-21 14:12N 37°59' E 013°42'0 0.0
2018-May-21 13:42N 37°59' E 013°42'0 0.0
2018-May-21 13:30N 37°59' E 013°42'0 0.0
2018-May-21 13:00N 37°59' E 013°42'0 0.0
2018-May-21 12:29N 37°59' E 013°42'2 3.2
2018-May-21 12:00N 38°00' E 013°44'3 6.9
2018-May-21 11:30N 38°04' E 013°44'4 7.6
2018-May-21 11:00N 38°08' E 013°44'4 7.6
2018-May-21 10:30N 38°12' E 013°44'4 7.3
2018-May-21 10:00N 38°15' E 013°45'0 0.4
2018-May-21 09:29N 38°15' E 013°45'0 0.1
2018-May-21 09:00N 38°15' E 013°45'0 0.6
2018-May-21 08:27N 38°15' E 013°45'0 0.9
2018-May-21 08:00N 38°16' E 013°46'0 0.7
2018-May-21 07:26N 38°16' E 013°46'0 0.5
2018-May-21 06:57N 38°16' E 013°46'0 0.5
2018-May-21 06:26N 38°17' E 013°45'1 2.4
2018-May-21 06:00N 38°17' E 013°45'3 5.8
2018-May-21 05:28N 38°20' E 013°43'3 6.1
2018-May-21 04:55N 38°19' E 013°39'3 6.6
2018-May-21 04:26N 38°18' E 013°35'2 5.4
2018-May-21 04:00N 38°19' E 013°33'3 5.6
2018-May-21 03:30N 38°20' E 013°29'3 5.9
2018-May-21 02:59N 38°20' E 013°25'3 5.9
2018-May-21 02:31N 38°20' E 013°22'4 7.2
2018-May-21 02:00N 38°20' E 013°17'4 8.0
2018-May-21 01:29N 38°20' E 013°12'4 7.8
2018-May-21 01:00N 38°20' E 013°07'4 7.5
2018-May-21 00:30N 38°20' E 013°02'4 7.1
2018-May-21 00:00N 38°20' E 012°58'10 6.8
2018-May-20 22:28N 38°20' E 012°44'  
2018-May-17 14:29N 36°31' E 013°29'1 1.1
2018-May-17 13:26N 36°30' E 013°30'0 1.0
2018-May-17 12:58N 36°30' E 013°31'0 0.9
2018-May-17 12:30N 36°29' E 013°31'0 1.0
2018-May-17 12:00N 36°29' E 013°32'1 1.1
2018-May-17 11:30N 36°29' E 013°32'1 1.2
2018-May-17 11:00N 36°28' E 013°33'1 2.6
2018-May-17 10:31N 36°27' E 013°34'2 3.5
2018-May-17 10:00N 36°26' E 013°35'2 3.8
2018-May-17 09:28N 36°24' E 013°36'3 4.7
2018-May-17 08:56N 36°22' E 013°39'3 5.8
2018-May-17 08:29N 36°21' E 013°41'4 5.1
2018-May-17 07:46N 36°19' E 013°45'1 3.1
2018-May-17 07:28N 36°18' E 013°45'3 1.5
2018-May-17 05:38N 36°16' E 013°47'0 0.9
2018-May-17 05:30N 36°16' E 013°47'32 1.7
2018-May-16 10:39N 36°01' E 014°23'10 0.3
2018-May-15 04:55N 35°54' E 014°31'2 5.2
2018-May-15 04:30N 35°55' E 014°33'4 7.5
2018-May-15 04:01N 35°58' E 014°36'4 7.2
2018-May-15 03:29N 36°01' E 014°39'11 7.1
2018-May-15 02:00N 36°09' E 014°47'16 5.3
2018-May-14 23:01N 36°21' E 015°01'7 5.3
2018-May-14 21:39N 36°27' E 015°05'32 6.0
2018-May-14 16:15N 36°56' E 015°23'7 3.0
2018-May-14 14:05N 36°60' E 015°30'0 2.7
2018-May-14 14:00N 36°60' E 015°30'51 1.8
2018-May-13 08:58N 37°51' E 015°27'3 5.5
2018-May-13 08:25N 37°54' E 015°29'6 6.3
2018-May-13 07:25N 37°60' E 015°31'3 7.0
2018-May-13 07:00N 38°03' E 015°32'4 7.2
2018-May-13 06:30N 38°06' E 015°34'4 7.2
2018-May-13 06:00N 38°10' E 015°35'5 9.0
2018-May-13 05:28N 38°14' E 015°36'4 8.3
2018-May-13 04:57N 38°17' E 015°40'4 7.5
2018-May-13 04:29N 38°19' E 015°37'3 7.1
2018-May-13 04:00N 38°21' E 015°33'3 6.3
2018-May-13 03:30N 38°22' E 015°30'4 7.7
2018-May-13 03:00N 38°21' E 015°25'4 7.1
2018-May-13 02:30N 38°21' E 015°21'3 5.8
2018-May-13 02:00N 38°21' E 015°17'3 6.6
2018-May-13 01:30N 38°20' E 015°13'4 8.1
2018-May-13 01:00N 38°19' E 015°08'4 8.2
2018-May-13 00:28N 38°19' E 015°02'4 8.4
2018-May-13 00:00N 38°19' E 014°57'59 9.4
2018-May-12 17:43N 38°11' E 013°43'2 9.9
2018-May-12 17:29N 38°10' E 013°40'3 7.1
2018-May-12 17:00N 38°10' E 013°36'3 6.7
2018-May-12 16:30N 38°10' E 013°31'3 6.9
2018-May-12 16:00N 38°09' E 013°27'4 7.3
2018-May-12 15:30N 38°07' E 013°23'1 2.4
2018-May-12 15:01N 38°08' E 013°22'0 0.0
2018-May-12 14:30N 38°08' E 013°22'0 0.0
2018-May-12 14:00N 38°08' E 013°22'0 0.0
2018-May-12 13:31N 38°08' E 013°22'0 0.0
2018-May-12 12:56N 38°08' E 013°22'0 0.0
2018-May-12 12:27N 38°08' E 013°22'0 0.0
2018-May-12 11:57N 38°08' E 013°22'0 0.0
2018-May-12 11:31N 38°08' E 013°22'0 0.0
2018-May-12 10:55N 38°08' E 013°22'0 0.0
2018-May-12 10:27N 38°08' E 013°22'0 0.0
2018-May-12 09:56N 38°08' E 013°22'0 0.0
2018-May-12 09:30N 38°08' E 013°22'0 0.0
2018-May-12 09:00N 38°08' E 013°22'0 0.0
2018-May-12 08:26N 38°08' E 013°22'0 0.0
2018-May-12 07:58N 38°08' E 013°22'0 0.0
2018-May-12 07:31N 38°08' E 013°22'0 0.0
2018-May-12 07:00N 38°08' E 013°22'0 0.0
2018-May-12 06:28N 38°08' E 013°22'0 0.0
2018-May-12 05:54N 38°08' E 013°22'0 0.0
2018-May-12 05:30N 38°08' E 013°22'0 0.8
2018-May-12 05:00N 38°08' E 013°22'3 5.1
2018-May-12 04:31N 38°09' E 013°25'4 7.1
2018-May-12 04:00N 38°13' E 013°24'3 5.8
2018-May-12 03:31N 38°16' E 013°23'3 5.2
2018-May-12 03:00N 38°18' E 013°22'3 5.3
2018-May-12 02:30N 38°20' E 013°20'3 5.4
2018-May-12 02:00N 38°22' E 013°18'3 5.3
2018-May-12 01:30N 38°24' E 013°15'3 5.3
2018-May-12 00:59N 38°26' E 013°13'3 5.3
2018-May-12 00:30N 38°28' E 013°11'  

Dump ship's entire track history